Date,TemperatureHighF,TemperatureAvgF,TemperatureLowF,DewpointHighF,DewpointAvgF,DewpointLowF,HumidityHigh,HumidityAvg,HumidityLow,PressureMaxIn,PressureMinIn,WindSpeedMaxMPH,WindSpeedAvgMPH,GustSpeedMaxMPH,PrecipitationSumIn
2014-1-1,27.8,23.5,19.8,26.0,21.3,17.0,94,91,82,25.98,25.69,13,5,14,0.00
2014-1-2,26.5,20.5,16.4,19.0,15.9,14.0,91,82,73,25.94,25.91,10,6,16,0.00
2014-1-8,37.5,29.1,23.4,28.0,23.2,20.0,88,79,68,25.90,25.85,19,11,20,0.10
2014-1-9,48.4,30.1,16.3,28.0,22.3,14.0,92,75,40,25.83,25.57,31,8,34,0.00
2014-1-10,40.8,34.6,29.6,28.0,23.7,18.0,81,66,40,25.64,25.52,23,13,27,0.00
2014-1-11,56.5,40.5,27.8,33.0,26.9,21.0,75,60,40,25.79,25.49,20,12,32,0.00
2014-1-12,40.9,40.9,40.9,26.0,26.0,26.0,55,55,55,0.00,40.00,31,31,42,0.00
2014-1-13,47.9,44.3,38.9,26.0,23.5,22.0,51,44,37,25.73,25.68,28,15,31,0.00
2014-1-28,28.5,18.1,6.3,3.0,-3.2,-6.0,62,41,24,30.55,30.27,23,8,29,0.00
2014-1-29,53.6,35.3,7.8,38.0,16.4,-3.0,88,49,26,30.26,29.45,25,11,40,0.05
2014-1-30,40.5,23.7,14.5,37.0,20.7,12.0,91,88,81,30.04,29.47,26,11,30,0.00
2014-1-31,24.8,17.5,10.3,19.0,14.2,8.0,94,87,76,30.09,29.94,18,6,22,0.00
2014-2-1,21.5,9.5,-4.9,18.0,5.4,-9.0,88,83,70,30.43,30.03,14,7,18,0.00
2014-2-2,30.0,7.9,-10.4,17.0,1.7,-14.0,89,77,51,30.45,30.32,14,3,17,0.00
2014-2-3,33.4,14.0,-2.1,21.0,9.5,-6.0,90,83,59,30.35,30.14,21,8,27,0.00
2014-2-4,11.0,2.0,-5.7,8.0,-1.8,-10.0,88,84,80,30.82,30.32,28,15,31,0.00
2014-2-5,0.4,-8.0,-17.6,-5.0,-13.2,-22.0,83,78,67,30.97,30.82,6,2,8,0.00
2014-2-6,5.0,-6.1,-17.1,-7.0,-12.0,-22.0,84,76,58,30.89,30.46,5,1,8,0.00
2014-2-7,22.6,4.1,-9.6,16.0,-1.9,-14.0,85,77,60,30.46,30.15,12,5,15,0.00
2014-2-8,22.9,15.5,7.4,19.0,11.7,4.0,90,85,74,30.41,30.12,21,8,28,0.00
2014-2-9,7.5,6.2,3.6,5.0,2.9,0.0,88,86,81,30.53,30.37,11,5,12,0.00
2014-2-10,19.3,9.9,-1.9,14.0,6.5,-5.0,89,86,77,30.52,30.37,17,7,17,0.00
2014-2-11,35.9,21.7,-4.1,32.0,17.1,-8.0,92,83,68,30.42,30.10,28,10,34,0.00
2014-2-12,41.0,26.5,9.3,33.0,21.1,7.0,92,80,71,30.31,29.79,36,13,39,0.00
2014-2-13,50.2,37.4,24.7,36.0,30.5,20.0,95,77,55,29.95,29.67,27,10,31,0.00
2014-2-14,41.6,34.4,24.1,32.0,25.0,20.0,95,70,48,30.07,29.79,20,9,27,0.00
2014-2-15,43.7,36.7,30.8,33.0,30.4,27.0,90,79,53,30.09,29.75,19,7,24,0.00
2014-2-16,66.2,42.1,29.8,40.0,32.8,27.0,90,72,36,30.03,29.61,29,11,45,0.00
2014-2-17,50.2,38.0,27.5,29.0,25.2,22.0,91,63,36,30.03,29.78,30,12,37,0.00
2014-2-18,45.8,35.7,25.8,28.0,24.1,19.0,86,65,38,30.03,29.73,33,10,43,0.00
2014-2-19,52.6,37.6,25.5,33.0,28.2,21.0,94,71,44,29.96,29.49,20,11,33,0.00
2014-2-20,34.7,28.9,21.1,22.0,16.6,13.0,79,61,41,29.95,29.76,41,15,48,0.00
2014-2-21,42.8,34.1,25.0,26.0,19.6,15.0,81,57,33,29.98,29.84,28,14,36,0.00
2014-2-22,30.2,26.0,16.6,25.0,21.6,14.0,92,83,67,30.25,29.94,18,7,20,0.00
2014-2-23,19.4,16.8,14.9,16.0,14.4,13.0,92,90,86,30.41,30.25,15,8,19,0.00
2014-2-24,26.7,15.4,1.1,26.0,12.6,-2.0,95,88,81,30.57,30.14,24,9,29,0.00
2014-2-25,11.7,4.5,-11.8,7.0,0.7,-16.0,88,84,78,30.72,30.41,10,4,13,0.00
2014-2-26,32.5,8.2,-15.8,20.0,1.4,-20.0,87,75,58,30.62,30.27,14,5,17,0.00
2014-2-27,28.8,16.1,-1.4,24.0,11.1,-6.0,91,81,68,30.27,29.78,20,6,22,0.00
2014-2-28,29.5,16.9,7.2,27.0,13.5,3.0,96,86,81,30.29,29.75,28,12,33,0.00
2014-3-1,7.1,-0.2,-5.3,3.0,-5.0,-11.0,86,80,74,30.66,30.25,18,11,22,0.00
2014-3-2,5.6,-0.5,-5.6,0.0,-5.3,-11.0,87,80,77,30.73,30.53,18,8,22,0.00
2014-3-3,45.4,24.4,3.3,35.0,19.0,0.0,92,81,61,30.52,30.08,18,8,26,0.00
2014-3-4,47.5,35.2,27.4,38.0,30.8,25.0,94,84,67,30.14,29.87,18,7,21,0.00
2014-3-5,52.8,37.0,24.4,39.0,31.2,23.0,96,82,49,30.20,30.01,14,5,17,0.00
2014-3-6,63.6,46.5,33.1,40.0,33.8,27.0,88,63,36,30.01,29.68,19,9,30,0.00
2014-3-7,44.6,31.9,27.4,35.0,29.8,26.0,96,92,66,30.28,29.77,18,10,24,0.00
2014-3-8,43.0,30.5,24.9,37.0,29.2,24.0,97,95,77,30.39,30.29,9,4,13,0.00
2014-3-13,63.0,51.2,34.5,31.0,24.8,17.0,73,40,20,30.03,29.74,33,14,43,0.00
2014-3-14,62.2,43.0,27.7,28.0,23.6,15.0,87,53,16,30.00,29.79,23,10,29,0.00
2014-3-15,40.7,35.4,28.6,36.0,29.8,23.0,94,81,55,30.39,29.77,28,14,33,0.00
2014-3-16,60.3,40.4,25.9,35.0,27.7,23.0,93,67,25,30.42,29.88,17,8,27,0.00
2014-3-17,62.4,46.0,33.5,35.0,29.8,27.0,77,56,28,29.86,29.25,21,8,32,0.00
2014-3-18,42.2,33.2,24.9,35.0,28.6,22.0,95,84,62,30.14,29.39,35,17,42,0.00
2014-3-19,46.2,34.1,21.4,27.0,22.8,18.0,88,67,35,30.20,30.05,18,7,24,0.00
2014-3-20,62.5,42.9,25.1,29.0,22.8,16.0,84,52,18,30.05,29.75,23,8,33,0.00
2014-3-21,41.3,31.6,23.4,25.0,22.3,19.0,87,70,45,30.36,29.94,23,10,33,0.00
2014-3-22,25.8,18.3,3.5,21.0,15.1,1.0,92,87,78,30.64,30.33,18,7,21,0.00
2014-3-23,40.0,24.1,2.0,34.0,20.8,-2.0,93,87,77,30.62,30.21,20,9,25,0.00
2014-3-24,40.0,30.5,22.9,27.0,22.5,18.0,89,74,47,30.44,30.30,28,8,30,0.00
2014-3-25,52.9,33.9,18.2,31.0,23.1,13.0,91,67,41,30.46,29.82,26,12,30,0.00
2014-3-26,72.5,48.1,25.4,35.0,27.7,22.0,88,54,15,29.81,29.27,32,12,38,0.00
2014-3-27,41.6,33.6,27.4,31.0,25.6,22.0,92,73,53,29.92,29.38,20,10,26,0.00
2014-3-28,48.5,37.9,28.2,32.0,26.7,22.0,94,67,38,30.21,29.86,28,12,35,0.00
2014-3-29,68.8,47.5,26.6,30.0,24.1,21.0,87,48,17,30.21,29.84,30,12,47,0.00
2014-3-30,70.3,51.8,33.7,37.0,25.8,16.0,78,42,13,29.83,29.32,29,9,32,0.00
2014-3-31,49.7,33.1,22.7,40.0,29.2,21.0,95,86,58,29.86,29.32,41,25,51,0.00
2014-4-8,68.4,58.7,40.4,32.0,30.1,26.0,61,36,21,30.14,29.94,17,7,26,0.00
2014-4-9,76.8,56.5,33.8,38.0,29.6,25.0,75,42,15,29.94,29.61,31,12,35,0.00
2014-4-10,59.9,48.0,37.3,41.0,37.4,34.0,96,69,45,29.98,29.80,19,7,36,0.00
2014-4-11,72.1,52.0,30.6,45.0,33.6,28.0,97,59,22,30.02,29.63,22,6,29,0.01
2014-4-12,65.6,50.7,33.1,36.0,32.2,28.0,83,53,26,29.77,29.60,31,12,35,0.00
2014-4-13,43.1,28.7,24.2,36.0,24.6,19.0,96,85,69,30.36,29.77,36,21,42,0.00
2014-4-14,41.4,29.5,16.8,23.0,18.1,13.0,87,65,40,30.41,30.22,27,13,36,0.00
2014-4-15,64.4,45.6,21.0,33.0,23.1,16.0,83,48,17,30.21,29.57,28,11,51,0.00
2014-4-16,53.5,40.8,31.0,38.0,33.5,28.0,96,77,43,30.20,29.55,26,14,39,0.00
2014-4-17,53.6,39.4,30.0,38.0,32.6,27.0,93,78,51,30.23,30.01,19,10,23,0.00
2014-4-18,79.0,58.9,35.9,42.0,36.4,32.0,91,51,18,30.01,29.65,26,11,35,0.00
2014-4-19,64.3,53.6,41.2,39.0,31.3,21.0,80,46,26,29.95,29.71,24,8,33,0.00
2014-4-20,78.5,58.5,39.1,46.0,36.3,28.0,87,50,17,30.01,29.81,19,8,25,0.00
2014-4-21,68.2,54.9,39.7,30.0,26.5,22.0,61,36,19,30.16,30.02,11,5,18,0.00
2014-4-22,80.1,61.3,45.7,57.0,38.6,27.0,91,45,25,30.03,29.45,23,14,34,0.00
2014-4-23,68.1,57.6,46.2,47.0,36.4,18.0,83,51,19,29.75,29.33,34,12,39,0.00
2014-4-24,64.7,51.2,34.5,38.0,25.7,18.0,80,43,17,29.86,29.74,24,10,31,0.00
2014-4-25,72.9,58.0,36.4,34.0,29.0,26.0,68,37,18,29.81,29.52,21,8,24,0.00
2014-4-26,73.7,58.7,41.2,48.0,38.1,30.0,70,48,30,29.52,29.11,17,6,22,0.00
2014-4-27,55.0,41.1,32.7,46.0,38.3,32.0,98,90,72,29.50,29.10,34,15,45,0.51
2014-4-28,44.5,38.3,33.0,37.0,34.4,32.0,98,86,65,29.91,29.49,39,22,55,0.05
2014-4-29,38.9,34.2,31.6,36.0,32.1,30.0,97,92,83,30.32,29.91,35,16,41,0.04
2014-4-30,50.0,39.5,31.6,35.0,29.0,26.0,90,68,49,30.33,30.21,33,15,40,0.00
2014-5-1,54.4,42.3,32.2,34.0,30.5,27.0,91,66,35,30.24,30.08,22,9,27,0.00
2014-5-2,74.6,52.3,29.2,45.0,36.4,26.0,89,61,28,30.09,29.80,22,9,26,0.00
2014-5-3,79.3,57.0,35.7,47.0,41.5,34.0,95,63,23,29.92,29.68,22,7,26,0.00
2014-5-4,73.2,54.8,40.0,45.0,42.1,38.0,94,66,35,29.80,29.61,21,10,22,0.00
2014-5-5,73.1,57.4,38.2,49.0,44.3,36.0,92,64,41,29.81,29.57,20,9,24,0.00
2014-5-6,69.7,56.9,42.5,52.0,47.5,40.0,92,72,51,29.58,29.43,21,9,24,0.00
2014-5-7,59.2,27.6,48.6,51.0,-22.5,-99.9,94,44,68,29.75,29.47,20,-472,30,0.12
2014-5-8,-200.0,0.0,200.0,-99.9,-99.9,-99.9,0,0,100,29.81,29.69,0,-999,0,0.00
2014-5-9,67.2,46.1,28.2,45.0,26.3,-99.9,97,62,33,29.96,29.66,20,-76,31,0.01
2014-5-10,67.5,53.6,40.3,46.0,39.0,31.0,90,62,26,29.76,29.64,23,10,29,0.00
2014-5-11,48.5,35.9,32.3,47.0,35.2,32.0,98,97,91,30.14,29.73,35,18,49,0.95
2014-5-12,46.2,37.7,32.5,33.0,31.0,28.0,95,78,50,30.40,30.11,25,13,35,0.00
2014-5-13,55.4,41.8,30.0,38.0,30.8,27.0,91,68,37,30.43,30.36,32,10,37,0.00
2014-5-14,57.4,44.1,28.2,38.0,33.5,27.0,93,69,35,30.42,30.27,25,8,38,0.00
2014-5-15,59.1,45.8,26.8,36.0,28.0,23.0,91,55,27,30.30,30.10,15,4,22,0.00
2014-5-16,60.0,48.7,37.5,48.0,39.1,31.0,96,71,45,30.11,29.95,28,10,39,0.05
2014-5-17,60.5,48.6,36.9,47.0,41.7,35.0,94,79,54,30.09,29.98,18,8,23,0.00
2014-5-18,76.8,57.8,42.4,57.0,47.7,41.0,94,72,30,29.99,29.52,28,13,28,0.06
2014-5-19,72.0,61.7,47.4,55.0,50.0,45.0,95,68,40,29.77,29.49,16,6,21,0.04
2014-5-20,72.0,60.1,51.0,54.0,49.5,43.0,96,72,40,29.96,29.74,19,7,32,0.22
2014-5-21,71.5,60.2,47.9,54.0,50.0,47.0,95,71,47,30.05,29.88,17,9,21,0.00
2014-5-22,74.3,63.5,51.7,55.0,52.4,48.0,92,69,46,30.04,29.95,17,8,21,0.00
2014-5-23,71.8,62.1,57.2,58.0,55.0,52.0,93,78,53,30.01,29.89,26,10,29,0.00
2014-5-24,70.6,63.1,56.2,57.0,56.0,54.0,95,79,57,29.91,29.77,25,12,29,0.00
2014-5-25,74.4,61.5,55.4,60.0,56.9,54.0,97,86,56,29.87,29.77,15,4,30,0.58
2014-5-26,79.8,65.6,52.1,58.0,54.5,51.0,96,71,41,29.88,29.79,11,3,17,0.04
2014-5-27,86.2,68.4,49.8,58.0,52.1,47.0,94,62,26,29.90,29.80,10,2,12,0.00
2014-5-28,89.2,74.0,56.6,59.0,53.3,47.0,88,54,24,29.89,29.76,16,7,20,0.00
2014-5-29,89.7,74.8,58.6,55.0,50.9,46.0,78,47,22,29.79,29.67,22,11,27,0.00
2014-5-30,68.9,62.2,56.9,60.0,57.2,51.0,97,84,53,29.96,29.76,18,8,22,0.35
2014-5-31,76.7,65.7,58.3,62.0,58.4,52.0,98,79,54,29.95,29.71,15,5,33,0.15
2014-6-1,75.3,60.3,52.4,59.0,55.0,51.0,97,84,52,29.90,29.65,24,6,61,0.94
2014-6-2,78.1,62.6,45.5,56.0,50.7,45.0,97,69,35,29.99,29.86,12,5,17,0.01
2014-6-3,86.1,66.7,53.5,67.0,59.6,52.0,93,79,45,29.86,29.48,24,10,36,0.00
2014-6-4,80.0,63.2,48.1,59.0,54.7,47.0,98,77,44,29.86,29.64,26,7,43,1.42
2014-6-5,79.4,64.1,46.4,59.0,47.9,40.0,98,63,26,29.86,29.80,10,4,21,0.00
2014-6-6,79.8,60.2,47.0,59.0,51.0,45.0,94,74,39,29.97,29.70,34,13,39,0.00
2014-6-7,56.9,50.3,43.6,50.0,46.7,43.0,96,87,75,30.11,29.97,19,9,26,0.02
2014-6-8,54.8,50.9,47.6,53.0,49.5,47.0,98,95,88,30.08,29.86,23,13,28,0.43
2014-6-9,69.4,55.6,45.4,49.0,45.8,42.0,98,73,40,30.09,29.90,13,6,19,0.01
2014-6-10,81.5,64.9,47.1,58.0,50.1,46.0,96,64,32,29.90,29.59,20,9,21,0.00
2014-6-11,64.5,57.5,49.2,57.0,52.4,46.0,96,84,64,30.00,29.58,20,9,28,0.00
2014-6-12,66.8,56.8,43.6,48.0,45.3,42.0,95,68,47,30.13,29.98,16,5,17,0.00
2014-6-13,84.7,68.1,52.9,63.0,54.9,47.0,83,65,44,29.98,29.38,31,19,39,0.00
2014-6-14,70.0,61.6,47.2,61.0,53.8,44.0,96,77,50,29.67,29.36,29,10,31,0.00
2014-6-15,77.1,59.9,39.1,49.0,41.7,35.0,95,58,23,29.82,29.66,24,11,36,0.00
2014-6-16,87.8,70.2,57.1,60.0,48.7,33.0,90,54,15,29.69,29.43,22,10,30,0.02
2014-6-17,90.2,71.7,51.1,64.0,53.5,36.0,96,61,15,29.57,29.42,20,7,26,0.00
2014-6-18,76.8,66.7,52.5,63.0,46.2,38.0,97,53,26,29.86,29.40,31,14,44,0.23
2014-6-19,77.7,63.3,48.3,53.0,44.5,35.0,98,58,23,29.90,29.77,35,11,37,0.15
2014-6-20,87.5,70.6,49.7,55.0,45.7,38.0,85,48,18,29.93,29.73,12,6,19,0.00
2014-6-21,88.0,70.9,56.9,64.0,54.9,46.0,94,61,30,29.75,29.60,28,7,48,0.01
2014-6-22,74.5,65.6,57.0,58.0,55.1,52.0,93,70,47,29.97,29.71,21,10,28,0.10
2014-6-23,78.3,64.5,51.4,57.0,53.2,50.0,97,70,42,29.96,29.85,13,3,17,0.01
2014-6-24,77.8,66.4,53.4,58.0,52.9,50.0,91,65,40,29.98,29.86,20,6,25,0.00
2014-6-25,83.6,71.3,60.2,62.0,57.9,53.0,94,66,35,29.89,29.67,22,9,26,0.00
2014-6-26,87.4,73.4,58.2,66.0,60.8,54.0,90,67,42,29.73,29.41,26,12,32,0.15
2014-6-27,84.6,67.1,57.2,63.0,57.3,53.0,96,75,35,29.56,29.40,43,7,48,0.35
2014-6-28,80.3,65.5,53.0,60.0,53.8,47.0,95,70,31,29.75,29.51,18,9,34,0.03
2014-6-29,90.1,69.1,49.5,57.0,50.9,46.0,92,58,23,29.77,29.61,16,6,22,0.00
2014-6-30,78.1,65.8,55.2,55.0,47.5,38.0,92,56,24,29.90,29.61,25,11,32,0.00
2014-7-1,73.3,61.0,47.9,51.0,46.9,44.0,85,62,36,30.12,29.90,25,12,36,0.00
2014-7-2,80.1,64.5,44.0,52.0,46.6,42.0,92,57,29,30.17,29.98,12,5,23,0.00
2014-7-3,85.4,72.0,57.2,62.0,56.4,51.0,86,61,35,30.00,29.83,19,9,24,0.00
2014-7-4,89.6,75.4,61.8,64.0,59.2,50.0,93,62,28,29.87,29.74,33,8,39,0.00
2014-7-5,99.3,79.5,58.9,61.0,53.8,45.0,86,48,17,29.81,29.70,9,4,17,0.00
2014-7-6,86.7,75.2,60.8,60.0,54.2,48.0,83,52,28,29.84,29.72,25,9,30,0.00
2014-7-7,86.5,70.8,60.1,61.0,57.2,53.0,84,64,37,29.95,29.71,28,10,38,0.00
2014-7-8,83.9,68.7,50.7,57.0,49.9,45.0,93,57,28,30.02,29.90,12,5,18,0.00
2014-7-9,93.3,71.6,53.7,64.0,55.8,49.0,90,61,26,29.93,29.68,20,8,26,0.00
2014-7-10,98.2,73.0,60.2,65.0,59.8,52.0,96,70,24,29.79,29.57,24,9,28,0.15
2014-7-11,85.3,71.5,59.9,67.0,63.6,58.0,94,78,48,29.96,29.73,23,8,30,0.20
2014-7-12,83.0,69.0,58.7,65.0,60.4,57.0,96,76,48,30.03,29.88,10,4,14,0.00
2014-7-13,88.8,73.0,58.9,64.0,57.5,47.0,96,64,24,30.05,29.87,12,3,17,0.00
2014-7-14,72.7,63.8,50.6,59.0,50.7,43.0,92,66,36,30.17,29.95,22,8,26,0.00
2014-7-15,73.8,61.5,47.6,54.0,49.6,45.0,92,67,48,30.17,29.91,20,8,23,0.00
2014-7-16,65.1,59.9,54.2,58.0,55.6,53.0,95,86,72,29.97,29.88,15,8,21,0.06
2014-7-17,76.7,64.4,52.5,57.0,54.7,52.0,97,74,44,29.97,29.82,14,7,21,0.00
2014-7-18,89.1,70.6,54.6,64.0,58.3,53.0,96,70,30,29.82,29.68,17,8,20,0.00
2014-7-19,88.5,74.2,58.0,66.0,58.4,52.0,93,61,36,29.78,29.59,21,10,33,0.00
2014-7-20,99.8,80.7,59.4,67.0,56.6,39.0,97,54,12,29.64,29.55,18,8,23,0.00
2014-7-21,99.5,81.4,62.0,57.0,51.6,41.0,70,40,16,29.76,29.61,22,10,57,0.00
2014-7-22,91.2,80.9,63.7,63.0,56.9,51.0,90,47,28,30.04,29.76,32,9,46,0.00
2014-7-23,91.6,77.0,62.5,66.0,61.7,56.0,89,62,36,30.10,29.81,23,12,29,0.00
2014-7-24,103.1,79.6,65.4,68.0,60.6,50.0,93,59,17,29.81,29.52,26,11,32,0.10
2014-7-25,86.9,73.8,62.7,62.0,53.3,43.0,83,51,29,29.77,29.57,19,9,22,0.01
2014-7-26,84.3,72.2,58.2,60.0,53.5,48.0,85,56,29,29.98,29.64,20,7,26,0.00
2014-7-27,84.6,68.9,51.8,57.0,50.0,46.0,82,55,29,30.15,29.98,10,3,14,0.00
2014-7-28,85.3,69.9,52.2,61.0,55.7,49.0,90,64,39,30.17,29.98,13,6,19,0.00
2014-7-29,81.0,67.1,56.5,60.0,57.0,55.0,95,72,46,30.06,29.95,17,7,23,0.00
2014-7-30,81.5,68.3,57.9,59.0,54.1,44.0,88,64,28,30.08,29.99,10,3,16,0.00
2014-7-31,83.5,70.0,53.4,58.0,49.9,41.0,93,55,23,30.03,29.94,15,4,20,0.00
2014-8-1,90.9,72.8,50.9,55.0,46.8,33.0,88,47,13,30.00,29.90,10,3,14,0.00
2014-8-2,92.5,71.7,55.7,56.0,50.3,43.0,80,52,18,29.97,29.88,19,6,24,0.00
2014-8-3,91.5,74.6,54.3,58.0,53.2,50.0,86,52,25,29.98,29.83,16,5,23,0.00
2014-8-4,93.6,75.0,57.0,60.0,55.6,48.0,91,55,22,29.86,29.73,21,7,29,0.00
2014-8-5,77.7,69.3,63.3,65.0,62.9,58.0,95,81,59,29.84,29.77,11,4,15,0.00
2014-8-6,81.8,67.6,57.3,65.0,61.0,56.0,98,81,46,29.91,29.79,16,4,25,0.01
2014-8-7,91.0,69.3,51.4,64.0,56.3,50.0,98,70,27,29.91,29.74,15,4,32,0.01
2014-8-8,84.3,68.7,53.2,62.0,57.3,52.0,96,71,34,29.87,29.76,15,4,19,0.00
2014-8-9,84.7,68.6,58.5,61.0,58.3,56.0,93,73,42,29.99,29.77,18,5,36,0.06
2014-8-10,78.5,66.4,54.7,63.0,57.3,53.0,96,75,43,30.13,29.99,20,6,27,0.11
2014-8-11,58.3,55.2,53.7,55.0,52.9,52.0,94,91,85,30.14,30.13,3,1,5,0.00
2014-8-18,66.7,63.6,59.4,60.0,58.1,56.0,89,82,76,29.76,29.75,11,3,13,0.20
2014-8-19,89.4,71.1,53.6,64.0,56.2,51.0,95,64,34,29.76,29.56,24,6,30,0.00
2014-8-20,89.9,75.0,62.8,60.0,56.7,51.0,85,58,26,29.63,29.53,19,6,28,0.00
2014-8-21,88.6,73.3,57.5,58.0,54.0,50.0,86,54,27,29.80,29.61,12,4,18,0.00
2014-8-22,77.4,66.5,61.1,61.0,56.9,52.0,94,72,48,29.87,29.76,12,4,16,0.09
2014-8-23,83.0,66.6,58.9,64.0,57.1,42.0,97,74,37,29.78,29.59,17,6,23,0.26
2014-8-24,83.6,66.3,50.0,48.0,43.6,39.0,77,48,21,29.88,29.72,32,12,40,0.00
2014-8-25,73.9,59.7,47.9,55.0,48.4,43.0,85,68,40,30.05,29.88,13,4,14,0.08
2014-8-26,80.8,66.4,51.3,63.0,57.4,50.0,96,75,48,30.07,29.90,18,8,22,0.00
2014-8-27,76.2,65.2,59.9,65.0,61.9,59.0,97,89,61,29.97,29.82,14,4,20,0.18
2014-8-28,67.6,61.8,55.4,62.0,58.8,52.0,98,90,65,29.88,29.80,17,6,19,0.41
2014-8-29,75.4,64.2,50.4,57.0,53.6,48.0,93,71,47,29.91,29.80,21,7,26,0.00
2014-8-30,87.3,69.0,51.7,60.0,54.0,48.0,96,64,28,29.90,29.56,21,9,39,0.00
2014-8-31,76.1,59.6,47.5,60.0,52.9,46.0,97,81,37,29.79,29.56,30,8,39,0.28
2014-9-1,78.8,58.5,45.7,55.0,47.4,39.0,96,71,24,29.96,29.76,23,7,32,0.01
2014-9-2,86.1,64.3,41.4,55.0,47.0,40.0,97,62,21,29.96,29.66,20,6,29,0.00
2014-9-3,96.2,75.2,56.0,57.0,51.8,41.0,88,51,16,29.65,29.43,32,6,42,0.00
2014-9-4,82.1,63.3,52.4,50.0,43.8,39.0,81,51,25,30.09,29.49,17,8,23,0.00
2014-9-5,61.1,54.8,48.3,53.0,49.1,46.0,93,81,66,30.25,30.10,9,3,13,0.04
2014-9-6,74.9,63.3,53.9,53.0,51.9,49.0,88,69,41,30.24,30.02,15,7,21,0.00
2014-9-7,86.2,67.4,51.6,57.0,51.2,43.0,92,62,22,30.02,29.71,19,8,27,0.01
2014-9-8,88.8,68.9,49.8,52.0,46.5,41.0,88,51,19,29.73,29.64,15,4,21,0.00
2014-9-9,71.8,60.7,48.5,59.0,52.5,46.0,95,76,53,29.84,29.57,21,7,33,0.00
2014-9-10,57.5,48.0,40.6,47.0,42.6,39.0,94,82,61,30.19,29.85,21,10,27,0.03
2014-9-11,40.4,37.1,32.7,40.0,36.3,32.0,98,96,92,30.60,30.17,20,11,24,0.17
2014-9-12,49.3,39.1,31.8,36.0,33.3,30.0,97,81,56,30.63,30.30,14,6,19,0.02
2014-9-13,65.0,49.2,34.5,44.0,37.9,33.0,95,70,33,30.29,30.09,16,7,19,0.00
2014-9-14,68.8,51.4,39.7,54.0,45.5,38.0,94,82,56,30.13,29.93,19,7,23,0.00
2014-9-15,66.0,51.5,35.2,47.0,41.3,33.0,95,71,43,30.30,30.11,18,7,20,0.00
2014-9-16,84.2,63.7,45.2,56.0,46.2,35.0,95,61,18,30.10,29.82,12,5,18,0.00
2014-9-17,86.0,66.2,45.8,58.0,47.7,43.0,90,58,23,29.85,29.74,12,3,15,0.00
2014-9-18,87.7,70.0,59.0,63.0,59.1,52.0,96,73,30,29.78,29.61,20,10,22,0.00
2014-9-19,88.9,69.8,53.1,60.0,53.5,49.0,94,62,26,29.77,29.60,15,5,22,0.00
2014-9-20,80.7,64.5,46.9,53.0,46.9,40.0,89,57,30,30.14,29.77,20,6,24,0.00
2014-9-21,73.6,59.1,42.8,44.0,40.8,37.0,85,55,30,30.27,30.15,12,4,15,0.00
2014-9-22,70.9,60.1,53.0,59.0,49.3,42.0,94,68,49,30.16,29.87,23,11,27,0.00
2014-9-23,82.9,64.0,48.2,54.0,50.2,47.0,97,66,30,29.92,29.82,18,6,27,0.01
2014-9-24,85.2,66.7,46.0,55.0,45.8,41.0,90,54,22,30.02,29.92,8,2,10,0.00
2014-9-25,87.7,67.4,45.9,54.0,47.0,42.0,86,54,22,30.01,29.86,21,7,23,0.00
2014-9-26,87.7,70.1,50.1,53.0,48.9,45.0,89,52,23,29.88,29.71,23,10,26,0.00
2014-9-27,84.8,67.9,53.6,53.0,50.1,46.0,85,57,26,29.80,29.69,15,6,20,0.00
2014-9-28,70.9,58.8,49.3,56.0,51.9,47.0,97,79,57,29.97,29.80,30,12,35,0.13
2014-9-29,63.6,55.9,52.0,60.0,55.1,52.0,98,97,89,29.96,29.50,17,8,24,2.44
2014-9-30,69.7,55.4,46.5,55.0,47.8,42.0,99,79,39,29.68,29.34,57,16,71,0.16
2014-10-1,65.0,52.2,40.7,49.0,45.3,39.0,95,79,51,29.95,29.68,21,5,26,0.06
2014-10-2,63.8,49.2,35.5,45.0,38.1,31.0,97,71,31,30.24,29.90,33,11,47,0.14
2014-10-3,50.4,39.1,30.5,34.0,27.0,21.0,96,65,32,30.35,30.25,30,12,35,0.01
2014-10-4,65.5,47.5,30.9,38.0,33.2,27.0,88,63,31,30.25,29.91,24,8,29,0.00
2014-10-5,64.3,54.2,46.5,48.0,42.7,38.0,83,66,44,29.93,29.82,30,12,40,0.01
2014-10-6,73.5,58.0,44.8,44.0,40.4,38.0,79,56,28,29.85,29.66,32,12,36,0.00
2014-10-7,71.2,57.7,45.1,47.0,43.6,39.0,84,62,38,30.00,29.74,14,4,19,0.00
2014-10-8,75.6,55.9,40.2,50.0,43.7,36.0,90,67,38,30.01,29.82,20,5,24,0.00
2014-10-9,59.7,49.0,40.1,47.0,42.5,38.0,93,79,60,30.18,29.93,18,7,26,0.00
2014-10-10,60.9,51.2,42.5,45.0,42.6,39.0,93,74,55,30.23,30.06,18,7,20,0.00
2014-10-11,74.5,53.5,39.5,47.0,43.0,38.0,95,71,31,30.06,29.63,28,10,31,0.00
2014-10-12,55.9,48.3,37.8,46.0,40.7,36.0,94,76,55,29.99,29.50,34,14,50,0.00
2014-10-13,58.2,45.8,33.2,38.0,33.4,27.0,89,65,31,30.16,30.00,20,10,28,0.00
2014-10-14,71.4,49.2,28.3,39.0,32.4,26.0,92,59,24,30.14,30.00,10,3,13,0.00
2014-10-15,81.8,58.1,35.8,44.0,36.2,31.0,85,51,20,30.00,29.67,20,7,27,0.00
2014-10-16,64.3,54.0,41.7,38.0,30.7,26.0,66,43,25,30.00,29.69,25,10,28,0.00
2014-10-17,59.3,45.5,31.2,42.0,36.3,29.0,93,72,48,30.21,30.01,7,2,12,0.00
2014-10-18,68.6,49.7,33.6,44.0,39.0,32.0,95,70,40,30.21,29.95,25,9,32,0.00
2014-10-19,73.1,53.7,35.5,44.0,38.3,33.0,93,62,26,30.05,29.95,12,2,16,0.00
2014-10-20,76.4,55.1,34.1,46.0,37.6,31.0,91,58,26,30.07,29.91,22,6,26,0.00
2014-10-21,75.2,59.9,43.9,49.0,45.0,40.0,85,60,37,29.92,29.70,14,6,18,0.00
2014-10-22,63.2,54.0,36.9,50.0,37.9,28.0,92,59,27,30.00,29.75,20,6,22,0.03
2014-10-23,73.9,50.5,32.7,42.0,32.5,26.0,81,55,25,30.06,29.91,26,8,35,0.00
2014-10-24,81.3,59.7,40.6,41.0,35.9,31.0,76,46,16,30.01,29.89,19,8,22,0.00
2014-10-25,75.0,54.3,36.1,43.0,37.1,32.0,85,56,26,30.09,29.81,15,4,18,0.00
2014-10-26,76.2,58.6,39.8,46.0,41.1,37.0,96,59,25,29.81,29.57,21,8,34,0.06
2014-10-27,52.1,43.6,30.7,46.0,32.8,25.0,92,69,37,30.07,29.65,25,10,26,0.12
2014-10-28,53.5,38.9,28.8,28.0,25.9,23.0,84,63,31,30.24,30.08,19,6,23,0.00
2014-10-29,69.9,44.5,22.8,30.0,24.6,20.0,90,54,15,30.23,30.00,26,7,31,0.00
2014-10-30,59.7,44.1,29.6,35.0,30.8,26.0,90,63,35,30.47,30.18,21,7,22,0.00
2014-10-31,47.1,35.6,26.3,31.0,27.5,23.0,96,75,52,30.49,30.13,28,13,32,0.00
2014-11-1,53.8,40.0,28.7,34.0,27.3,20.0,74,62,44,30.13,29.80,19,11,22,0.00
2014-11-2,62.2,47.3,30.0,44.0,37.1,28.0,93,70,44,29.83,29.76,10,3,17,0.03
2014-11-3,48.3,36.4,28.3,44.0,34.1,26.0,96,91,83,30.25,29.76,28,9,36,0.26
2014-11-4,55.3,39.7,25.4,36.0,29.1,23.0,93,69,40,30.34,30.09,20,10,24,0.00
2014-11-5,56.4,44.4,30.4,37.0,32.0,28.0,91,64,43,30.39,30.08,24,11,33,0.00
2014-11-6,63.8,43.7,27.1,41.0,32.5,25.0,93,69,31,30.42,29.96,11,5,15,0.00
2014-11-7,61.4,49.5,37.2,39.0,35.0,32.0,90,59,34,30.25,29.86,35,12,42,0.00
2014-11-8,59.4,40.5,28.2,39.0,31.6,27.0,93,67,43,30.28,29.93,19,5,25,0.00
2014-11-9,64.4,50.0,35.1,35.0,31.7,27.0,74,51,31,29.94,29.33,23,10,28,0.00
2014-11-10,58.3,24.4,12.0,34.0,17.6,4.0,92,77,37,30.38,29.30,31,16,40,0.00
2014-11-11,11.9,6.7,-0.6,5.0,0.9,-8.0,82,72,67,30.82,30.38,22,10,26,0.00
2014-11-12,9.4,1.0,-8.3,-1.0,-5.3,-13.0,81,60,61,30.96,30.81,20,7,28,0.00
2014-11-13,16.6,6.4,-11.4,4.0,-1.9,-16.0,82,52,45,30.95,30.45,20,7,24,0.00
2014-11-14,27.0,20.8,13.1,17.0,12.0,4.0,85,69,62,30.44,30.08,18,9,22,0.00
2014-11-15,17.0,5.9,-4.1,13.0,0.9,-9.0,86,80,71,30.52,30.09,25,11,30,0.00
2014-11-16,29.5,13.2,-3.4,15.0,4.3,-9.0,83,69,46,30.50,30.38,38,16,50,0.00
2014-11-17,23.0,15.5,9.8,8.0,5.9,2.0,79,66,51,30.47,30.38,38,16,40,0.00
2014-11-18,47.0,29.2,8.9,21.0,14.2,0.0,76,56,34,30.38,30.12,27,12,35,0.00
2014-11-19,39.8,28.3,16.2,24.0,19.5,13.0,88,71,50,30.20,30.11,24,8,28,0.00
2014-11-20,54.6,29.8,11.1,27.0,16.9,8.0,89,64,24,30.21,30.07,10,4,15,0.00
2014-11-21,55.9,36.5,24.2,30.0,21.4,18.0,77,58,27,30.07,29.90,31,6,31,0.00
2014-11-22,59.6,42.2,24.2,36.0,25.1,19.0,83,56,24,29.92,29.51,31,12,44,0.00
2014-11-23,41.1,35.0,26.3,30.0,19.2,15.0,74,54,35,29.85,29.57,39,18,49,0.00
2014-11-24,38.4,29.0,17.9,30.0,21.2,15.0,90,73,56,30.26,29.82,37,14,41,0.00
2014-11-25,45.6,31.9,18.1,32.0,22.5,15.0,90,70,41,30.26,29.91,28,14,39,0.00
2014-11-26,32.1,27.2,22.2,27.0,23.4,21.0,95,85,69,30.43,30.15,34,7,43,0.00
2014-11-27,60.9,34.4,17.1,37.0,25.5,15.0,94,74,33,30.40,30.03,20,6,26,0.00
2014-11-28,66.4,45.4,30.0,30.0,23.0,18.0,80,47,17,30.03,29.63,28,10,39,0.00
2014-11-29,64.4,42.5,13.6,25.0,19.4,11.0,93,47,17,29.77,29.47,31,12,33,0.00
2014-11-30,17.3,11.5,5.8,12.0,6.8,3.0,91,81,68,30.77,29.77,16,6,19,0.00
2014-12-1,34.4,23.9,12.5,18.0,10.6,4.0,77,59,30,30.77,30.15,34,14,38,0.00
2014-12-2,42.0,31.3,21.2,29.0,20.2,12.0,79,64,50,30.29,30.01,27,7,29,0.00
2014-12-3,36.1,25.8,14.7,19.0,14.8,11.0,86,65,46,30.36,30.09,23,9,29,0.00
2014-12-4,57.1,37.0,22.3,35.0,26.0,15.0,88,67,38,30.11,29.94,14,7,22,0.00
2014-12-5,50.6,35.3,23.9,35.0,28.4,21.0,95,77,55,30.47,29.99,10,4,15,0.00
2014-12-6,47.6,35.1,21.3,36.0,28.5,20.0,96,78,54,30.49,30.26,22,9,26,0.00
2014-12-7,54.2,38.0,24.0,35.0,27.0,20.0,89,68,38,30.36,30.20,16,7,20,0.00
2014-12-8,53.1,32.8,18.1,31.0,20.6,15.0,92,66,29,30.43,30.32,15,4,17,0.00
2014-12-9,58.2,37.4,23.2,28.0,22.8,16.0,79,59,29,30.41,30.15,18,5,22,0.00
2014-12-10,60.2,37.4,22.0,29.0,23.0,17.0,84,61,29,30.19,30.10,8,3,11,0.00
2014-12-11,65.3,39.2,21.4,30.0,23.0,18.0,86,58,22,30.12,30.00,16,6,22,0.00
2014-12-12,65.4,38.7,19.5,34.0,22.8,15.0,96,60,19,30.10,29.97,17,6,21,0.00
2014-12-13,40.0,33.0,26.0,37.0,31.6,24.0,97,94,87,30.01,29.80,15,7,19,0.00
2014-12-14,34.1,29.9,23.3,31.0,27.8,21.0,95,91,85,30.01,29.79,21,9,26,0.00
2014-12-15,26.7,23.6,13.7,24.0,21.2,12.0,95,90,81,30.41,30.00,28,12,36,0.00
2014-12-16,20.9,17.3,12.0,20.0,15.7,10.0,94,93,90,30.45,30.33,13,4,15,0.00
2014-12-17,23.0,20.1,16.9,22.0,18.7,15.0,95,94,93,30.33,30.17,13,7,15,0.00
2014-12-18,34.0,17.8,0.7,30.0,15.0,-2.0,95,89,78,30.33,30.22,8,2,9,0.00
2014-12-19,38.3,22.2,10.3,29.0,17.7,7.0,91,83,68,30.32,30.16,17,6,19,0.01
2014-12-20,42.7,27.5,14.5,33.0,22.6,11.0,90,82,67,30.18,30.00,15,5,16,0.00
2014-12-21,41.4,33.4,20.8,34.0,27.4,17.0,89,79,60,29.98,29.52,19,10,32,0.00
2014-12-22,39.2,34.1,28.2,31.0,26.4,23.0,91,74,56,29.82,29.64,36,18,56,0.00
2014-12-23,29.6,23.8,11.3,26.0,20.6,8.0,92,87,71,30.28,29.82,17,9,26,0.00
2014-12-24,42.2,25.9,7.6,28.0,18.9,4.0,89,76,54,30.25,29.60,18,7,25,0.00
2014-12-25,36.0,27.0,20.6,30.0,24.2,18.0,94,89,75,30.07,29.54,34,15,40,0.00
2014-12-26,20.5,17.0,14.2,18.0,14.6,12.0,92,90,87,30.36,30.08,20,8,24,0.00
2014-12-27,21.4,10.5,-2.7,15.0,5.9,-6.0,91,82,69,30.46,30.34,20,8,22,0.00
2014-12-28,28.5,16.7,1.5,25.0,13.1,-3.0,95,86,65,30.33,30.18,13,4,20,0.00
2014-12-29,18.5,5.3,-1.8,17.0,2.1,-6.0,92,86,82,30.95,30.29,25,16,29,0.00
2014-12-30,1.8,-6.6,-19.3,-6.0,-11.4,-24.0,84,79,70,31.15,30.94,18,6,22,0.00
2014-12-31,20.9,0.7,-19.1,11.0,-5.7,-23.0,83,75,61,30.93,30.54,20,8,25,0.00
2015-1-1,30.1,14.9,-1.3,21.0,8.3,-8.0,87,75,60,30.52,30.30,15,5,19,0.00
2015-1-2,34.1,24.5,12.6,29.0,21.0,10.0,94,86,80,30.34,29.91,13,6,15,0.00